Accueil
METAR-TAF:

METAR-TAF

Aéroports :

Warren Field Airport

Washington, Caroline du Nord, États-Unis

latitude: 35-34-14N, longitude: 077-02-59W, altitude: 12 m

Observation

Le bulletin a été fait il y a 20 minutes, à 22:35 UTC
Vent 10 kt de ouest/sud-ouest avec des rafales jusqu'à 15 kt
Température 10°C
Humidité 32%
Pression 1015 hPa
Visibilité: 16.1 km
Nuages épars à une hauteur de 7500 ft

METAR: KOCW 282235Z AUTO 24010G15KT 10SM SCT075 10/M06 A2996 RMK AO2 T01021056

Heure: 17:55 (22:55 UTC)


TAF: absent

Observations et prévisions météorologiques de plus de 4000 aéroports (messages METAR et TAF).

Les stations disponibles sont représentées par des disques jaunes et rouges sur la carte.

Passer la souris dessus pour voir le nom de la station.

Cliquer dessus pour voir les observations et prévisions météorologiques.

Pour changer de carte: cliquez sur les boutons verts avec une croix noire pour zoomer, sur le bouton vert avec un tiret pour effectuer un zoom arrière, ou sur les flèches vertes pour les cartes adjacentes.


METAR-TAF: